createdAt,value
2023-04-30T00:00:52.200Z,59.33
2023-04-30T00:03:18.873Z,60.00
2023-04-30T00:05:45.670Z,59.50
2023-04-30T00:08:12.152Z,58.75
2023-04-30T00:10:38.976Z,58.59
2023-04-30T00:13:05.453Z,58.35
2023-04-30T00:15:32.052Z,58.90
2023-04-30T00:17:58.579Z,59.88
2023-04-30T00:20:25.497Z,59.76
2023-04-30T00:22:52.065Z,58.75
2023-04-30T00:25:18.657Z,58.20
2023-04-30T00:27:45.176Z,58.58
2023-04-30T00:30:12.204Z,58.27
2023-04-30T00:32:40.741Z,58.11
2023-04-30T00:35:07.706Z,58.30
2023-04-30T00:37:34.212Z,58.19
2023-04-30T00:40:01.175Z,58.68
2023-04-30T00:42:27.768Z,59.05
2023-04-30T00:44:54.267Z,59.27
2023-04-30T00:47:21.083Z,57.40
2023-04-30T00:49:48.229Z,58.63
2023-04-30T00:52:14.992Z,58.99
2023-04-30T00:54:41.774Z,59.09
2023-04-30T00:57:12.027Z,58.89
2023-04-30T00:59:38.750Z,59.18
2023-04-30T01:02:05.811Z,59.23
2023-04-30T01:04:33.520Z,59.78
2023-04-30T01:07:02.151Z,58.98
2023-04-30T01:09:29.617Z,60.17
2023-04-30T01:12:13.372Z,59.95
2023-04-30T01:14:57.106Z,59.65
2023-04-30T01:17:33.779Z,59.48
2023-04-30T01:20:01.597Z,60.16
2023-04-30T01:22:28.312Z,60.13
2023-04-30T01:25:19.606Z,59.43
2023-04-30T01:28:01.357Z,59.53
2023-04-30T01:30:30.491Z,59.62
2023-04-30T01:32:57.278Z,59.59
2023-04-30T01:35:39.006Z,59.47
2023-04-30T01:38:20.887Z,58.19
2023-04-30T01:40:55.475Z,58.10
2023-04-30T01:43:44.304Z,58.85
2023-04-30T01:46:27.224Z,58.73
2023-04-30T01:48:58.170Z,59.01
2023-04-30T01:51:39.626Z,59.35
2023-04-30T01:54:29.461Z,58.96
2023-04-30T01:57:07.555Z,58.16
2023-04-30T01:59:39.844Z,57.82
2023-04-30T02:02:06.849Z,58.12
2023-04-30T02:04:33.450Z,59.46
2023-04-30T02:07:00.206Z,59.47
2023-04-30T02:09:26.951Z,59.06
2023-04-30T02:11:53.499Z,58.28
2023-04-30T02:14:20.040Z,58.46
2023-04-30T02:16:46.696Z,58.13
2023-04-30T02:19:13.193Z,58.09
2023-04-30T02:21:39.805Z,57.92
2023-04-30T02:24:06.657Z,57.67
2023-04-30T02:26:33.813Z,57.16
2023-04-30T02:29:00.358Z,57.28
2023-04-30T02:31:27.101Z,57.50
2023-04-30T02:33:53.732Z,57.55
2023-04-30T02:36:20.335Z,58.36
2023-04-30T02:38:47.166Z,59.11
2023-04-30T02:41:13.748Z,58.84
2023-04-30T02:43:40.542Z,58.14
2023-04-30T02:46:07.185Z,57.78
2023-04-30T02:48:33.701Z,58.23
2023-04-30T02:51:00.453Z,58.18
2023-04-30T02:53:27.013Z,58.31
2023-04-30T02:55:53.561Z,57.20
2023-04-30T02:58:20.064Z,57.84
2023-04-30T03:00:46.583Z,58.63
2023-04-30T03:03:13.472Z,58.73
2023-04-30T03:05:40.156Z,58.60
2023-04-30T03:08:06.684Z,58.33
2023-04-30T03:10:33.212Z,59.09
2023-04-30T03:12:59.786Z,58.47
2023-04-30T03:15:26.759Z,58.77
2023-04-30T03:17:53.284Z,58.56
2023-04-30T03:20:20.353Z,58.21
2023-04-30T03:22:46.909Z,59.48
2023-04-30T03:25:13.495Z,59.29
2023-04-30T03:27:40.067Z,59.87
2023-04-30T03:30:07.502Z,60.10
2023-04-30T03:32:34.144Z,59.81
2023-04-30T03:35:00.839Z,59.80
2023-04-30T03:37:27.351Z,60.02
2023-04-30T03:39:54.165Z,60.85
2023-04-30T03:42:21.095Z,61.31
2023-04-30T03:44:47.832Z,61.41
2023-04-30T03:47:14.368Z,61.11
2023-04-30T03:49:40.884Z,60.82
2023-04-30T03:52:07.551Z,60.47
2023-04-30T03:54:34.108Z,60.02
2023-04-30T03:57:04.299Z,59.87
2023-04-30T03:59:32.166Z,59.17
2023-04-30T04:02:00.822Z,59.02
2023-04-30T04:04:27.582Z,59.54
2023-04-30T04:06:54.153Z,58.66
2023-04-30T04:09:20.836Z,59.24
2023-04-30T04:11:47.358Z,58.96
2023-04-30T04:14:14.117Z,58.53
2023-04-30T04:16:42.343Z,59.22
2023-04-30T04:19:09.129Z,60.29
2023-04-30T04:21:36.582Z,60.17
2023-04-30T04:24:08.688Z,58.99
2023-04-30T04:26:37.187Z,59.66
2023-04-30T04:29:04.714Z,58.74
2023-04-30T04:31:32.104Z,58.88
2023-04-30T04:34:00.341Z,58.76
2023-04-30T04:36:28.374Z,58.70
2023-04-30T04:39:01.878Z,59.16
2023-04-30T04:41:29.880Z,59.57
2023-04-30T04:43:56.823Z,59.83
2023-04-30T04:46:24.930Z,59.80
2023-04-30T04:48:52.247Z,59.82
2023-04-30T04:51:18.886Z,59.85
2023-04-30T04:53:45.470Z,59.43
2023-04-30T04:56:12.822Z,59.19
2023-04-30T04:58:39.886Z,58.71
2023-04-30T05:01:06.474Z,59.46
2023-04-30T05:03:36.944Z,59.79
2023-04-30T05:06:04.219Z,59.85
2023-04-30T05:08:31.638Z,59.97
2023-04-30T05:10:58.309Z,60.05
2023-04-30T05:13:24.851Z,60.86
2023-04-30T05:15:52.885Z,61.00
2023-04-30T05:18:20.328Z,61.40
2023-04-30T05:20:46.883Z,61.34
2023-04-30T05:23:13.507Z,61.59
2023-04-30T05:25:40.059Z,61.46
2023-04-30T05:28:06.643Z,61.67
2023-04-30T05:30:33.376Z,62.41
2023-04-30T05:32:59.945Z,62.88
2023-04-30T05:35:26.571Z,62.79
2023-04-30T05:37:53.334Z,63.21
2023-04-30T05:40:20.420Z,63.57
2023-04-30T05:42:46.972Z,63.51
2023-04-30T05:45:14.683Z,64.01
2023-04-30T05:47:41.504Z,64.42
2023-04-30T05:50:09.856Z,64.83
2023-04-30T05:52:36.411Z,64.60
2023-04-30T05:55:02.968Z,64.45
2023-04-30T05:57:29.648Z,64.74
2023-04-30T05:59:56.429Z,64.53
2023-04-30T06:02:23.295Z,64.02
2023-04-30T06:04:50.066Z,64.19
2023-04-30T06:07:16.539Z,64.95
2023-04-30T06:09:43.136Z,64.38
2023-04-30T06:12:10.015Z,64.99
2023-04-30T06:14:36.766Z,64.95
2023-04-30T06:17:03.356Z,64.54
2023-04-30T06:19:29.928Z,64.03
2023-04-30T06:21:56.508Z,64.22
2023-04-30T06:24:23.214Z,64.35
2023-04-30T06:26:49.831Z,64.85
2023-04-30T06:29:16.478Z,64.86
2023-04-30T06:31:43.100Z,64.47
2023-04-30T06:34:09.677Z,64.79
2023-04-30T06:36:36.218Z,63.81
2023-04-30T06:39:03.182Z,64.76
2023-04-30T06:41:29.733Z,64.37
2023-04-30T06:43:56.286Z,64.25
2023-04-30T06:46:23.060Z,64.22
2023-04-30T06:48:49.682Z,64.04
2023-04-30T06:51:16.217Z,64.09
2023-04-30T06:53:42.971Z,63.44
2023-04-30T06:56:09.583Z,64.51
2023-04-30T06:58:36.257Z,65.25
2023-04-30T07:01:03.394Z,64.75
2023-04-30T07:03:30.190Z,64.67
2023-04-30T07:05:57.430Z,63.37
2023-04-30T07:08:24.389Z,63.71
2023-04-30T07:10:50.938Z,62.03
2023-04-30T07:13:17.580Z,56.79
2023-04-30T07:15:44.532Z,53.72
2023-04-30T07:18:11.339Z,53.53
2023-04-30T07:20:38.029Z,53.17
2023-04-30T07:23:04.718Z,53.76
2023-04-30T07:25:31.365Z,54.22
2023-04-30T07:27:58.034Z,54.12
2023-04-30T07:30:25.346Z,54.56
2023-04-30T07:32:51.996Z,53.93
2023-04-30T07:35:18.958Z,54.00
2023-04-30T07:37:45.770Z,55.21
2023-04-30T07:40:15.395Z,52.87
2023-04-30T07:42:46.209Z,51.94
2023-04-30T07:45:13.402Z,53.10
2023-04-30T07:47:40.697Z,52.77
2023-04-30T07:50:07.700Z,52.49
2023-04-30T07:52:34.480Z,54.46
2023-04-30T07:55:01.004Z,54.57
2023-04-30T07:57:27.671Z,54.00
2023-04-30T07:59:54.594Z,54.08
2023-04-30T08:02:21.726Z,53.99
2023-04-30T08:04:48.775Z,52.29
2023-04-30T08:07:18.241Z,50.49
2023-04-30T08:09:44.788Z,49.25
2023-04-30T08:12:11.377Z,48.80
2023-04-30T08:14:37.974Z,49.00
2023-04-30T08:17:04.794Z,50.81
2023-04-30T08:19:31.990Z,52.84
2023-04-30T08:21:59.661Z,51.87
2023-04-30T08:24:26.348Z,52.78
2023-04-30T08:26:54.726Z,51.02
2023-04-30T08:29:21.801Z,52.73
2023-04-30T08:31:48.463Z,51.89
2023-04-30T08:34:15.159Z,55.23
2023-04-30T08:36:41.747Z,55.80
2023-04-30T08:39:08.337Z,53.33
2023-04-30T08:41:36.685Z,52.25
2023-04-30T08:44:04.764Z,51.57
2023-04-30T08:46:35.460Z,53.66
2023-04-30T08:49:02.241Z,52.44
2023-04-30T08:51:31.725Z,52.09
2023-04-30T08:53:58.258Z,52.10
2023-04-30T08:56:26.393Z,53.22
2023-04-30T08:58:53.007Z,55.01
2023-04-30T09:01:19.978Z,52.27
2023-04-30T09:03:46.725Z,54.24
2023-04-30T09:06:17.373Z,54.59
2023-04-30T09:08:50.654Z,51.34
2023-04-30T09:11:35.212Z,52.09
2023-04-30T09:14:02.664Z,51.08
2023-04-30T09:16:44.183Z,49.36
2023-04-30T09:19:26.467Z,49.03
2023-04-30T09:21:53.550Z,49.73
2023-04-30T09:24:20.212Z,51.51
2023-04-30T09:26:47.772Z,49.02
2023-04-30T09:29:14.961Z,47.88
2023-04-30T09:31:46.940Z,50.42
2023-04-30T09:34:14.469Z,48.65
2023-04-30T09:36:57.109Z,50.43
2023-04-30T09:39:23.970Z,49.10
2023-04-30T09:41:52.327Z,49.69
2023-04-30T09:44:32.185Z,49.07
2023-04-30T09:47:01.132Z,49.86
2023-04-30T09:49:28.105Z,49.49
2023-04-30T09:52:01.578Z,50.64
2023-04-30T09:54:30.785Z,50.66
2023-04-30T09:56:59.187Z,47.00
2023-04-30T09:59:35.269Z,48.33
2023-04-30T10:02:04.604Z,47.24
2023-04-30T10:04:36.930Z,48.58
2023-04-30T10:07:14.069Z,50.14
2023-04-30T10:09:46.435Z,47.82
2023-04-30T10:12:16.044Z,50.08
2023-04-30T10:14:51.299Z,47.35
2023-04-30T10:17:18.420Z,49.14
2023-04-30T10:19:49.705Z,48.75
2023-04-30T10:22:16.748Z,50.38
2023-04-30T10:24:44.714Z,47.51
2023-04-30T10:27:11.968Z,47.96
2023-04-30T10:29:38.476Z,49.06
2023-04-30T10:32:06.149Z,50.01
2023-04-30T10:34:43.046Z,48.84
2023-04-30T10:37:22.102Z,46.56
2023-04-30T10:39:49.723Z,48.82
2023-04-30T10:42:16.349Z,48.59
2023-04-30T10:44:43.013Z,47.75
2023-04-30T10:47:09.606Z,47.63
2023-04-30T10:49:36.401Z,49.40
2023-04-30T10:52:04.914Z,48.13
2023-04-30T10:54:35.872Z,48.84
2023-04-30T10:57:17.688Z,47.52
2023-04-30T10:59:52.460Z,50.26
2023-04-30T11:02:19.238Z,48.73
2023-04-30T11:05:07.733Z,49.15
2023-04-30T11:07:34.946Z,46.94
2023-04-30T11:10:02.472Z,48.39
2023-04-30T11:12:29.709Z,46.78
2023-04-30T11:15:17.832Z,48.57
2023-04-30T11:17:46.087Z,47.48
2023-04-30T11:20:14.597Z,48.66
2023-04-30T11:22:41.550Z,47.84
2023-04-30T11:25:13.163Z,47.86
2023-04-30T11:27:46.652Z,50.16
2023-04-30T11:30:18.480Z,48.48
2023-04-30T11:32:47.659Z,46.25
2023-04-30T11:35:18.795Z,48.36
2023-04-30T11:37:46.324Z,47.46
2023-04-30T11:40:14.505Z,44.99
2023-04-30T11:42:46.119Z,47.82
2023-04-30T11:45:20.622Z,47.32
2023-04-30T11:47:48.925Z,45.31
2023-04-30T11:50:17.665Z,45.47
2023-04-30T11:52:49.966Z,47.04
2023-04-30T11:55:18.124Z,43.48
2023-04-30T11:57:46.740Z,45.41
2023-04-30T12:00:21.066Z,45.44
2023-04-30T12:02:49.527Z,44.35
2023-04-30T12:05:20.781Z,45.44
2023-04-30T12:08:08.945Z,47.73
2023-04-30T12:10:36.380Z,46.29
2023-04-30T12:13:04.014Z,45.67
2023-04-30T12:15:30.611Z,44.46
2023-04-30T12:17:59.198Z,46.36
2023-04-30T12:20:29.243Z,46.20
2023-04-30T12:23:00.002Z,46.23
2023-04-30T12:25:28.855Z,42.97
2023-04-30T12:27:55.606Z,44.98
2023-04-30T12:30:24.852Z,45.47
2023-04-30T12:32:53.381Z,45.30
2023-04-30T12:35:22.581Z,46.05
2023-04-30T12:37:53.670Z,46.03
2023-04-30T12:40:22.260Z,47.85
2023-04-30T12:42:48.929Z,47.21
2023-04-30T12:45:48.218Z,47.63
2023-04-30T12:48:15.959Z,45.29
2023-04-30T12:50:43.320Z,47.32
2023-04-30T12:53:10.055Z,45.63
2023-04-30T12:55:37.874Z,48.17
2023-04-30T12:58:12.964Z,47.34
2023-04-30T13:00:51.343Z,46.80
2023-04-30T13:03:21.071Z,48.41
2023-04-30T13:05:50.046Z,48.07
2023-04-30T13:08:18.019Z,46.74
2023-04-30T13:10:46.468Z,46.88
2023-04-30T13:13:14.839Z,47.21
2023-04-30T13:15:42.997Z,47.33
2023-04-30T13:18:10.086Z,47.03
2023-04-30T13:20:36.875Z,45.84
2023-04-30T13:23:03.878Z,44.59
2023-04-30T13:25:31.987Z,47.81
2023-04-30T13:27:58.626Z,46.11
2023-04-30T13:30:25.504Z,46.61
2023-04-30T13:32:52.500Z,45.90
2023-04-30T13:35:19.352Z,45.66
2023-04-30T13:37:47.888Z,46.21
2023-04-30T13:40:15.335Z,44.27
2023-04-30T13:42:45.259Z,44.25
2023-04-30T13:45:12.693Z,43.73
2023-04-30T13:47:39.786Z,44.30
2023-04-30T13:50:08.474Z,44.58
2023-04-30T13:52:35.241Z,41.95
2023-04-30T13:55:02.188Z,40.25
2023-04-30T13:57:32.684Z,41.17
2023-04-30T13:59:59.645Z,41.51
2023-04-30T14:02:30.197Z,41.84
2023-04-30T14:05:05.219Z,42.87
2023-04-30T14:07:32.773Z,40.98
2023-04-30T14:09:59.667Z,42.52
2023-04-30T14:12:26.497Z,42.87
2023-04-30T14:14:53.109Z,43.92
2023-04-30T14:17:20.300Z,43.85
2023-04-30T14:19:47.179Z,46.13
2023-04-30T14:22:14.007Z,44.75
2023-04-30T14:24:40.881Z,44.11
2023-04-30T14:27:07.479Z,44.31
2023-04-30T14:29:34.025Z,44.90
2023-04-30T14:32:01.389Z,42.92
2023-04-30T14:34:27.993Z,44.41
2023-04-30T14:36:54.856Z,41.20
2023-04-30T14:39:21.351Z,42.95
2023-04-30T14:41:47.884Z,42.81
2023-04-30T14:44:14.487Z,42.62
2023-04-30T14:46:41.387Z,40.89
2023-04-30T14:49:08.045Z,42.35
2023-04-30T14:51:34.670Z,43.02
2023-04-30T14:54:02.395Z,44.44
2023-04-30T14:56:29.090Z,44.10
2023-04-30T14:58:55.615Z,43.11
2023-04-30T15:01:22.406Z,44.48
2023-04-30T15:03:49.234Z,43.61
2023-04-30T15:06:16.290Z,44.07
2023-04-30T15:08:43.051Z,44.13
2023-04-30T15:11:10.655Z,44.30
2023-04-30T15:13:37.501Z,43.88
2023-04-30T15:16:04.701Z,42.79
2023-04-30T15:18:31.941Z,42.63
2023-04-30T15:20:58.844Z,41.47
2023-04-30T15:23:25.359Z,42.22
2023-04-30T15:25:51.989Z,41.74
2023-04-30T15:28:19.430Z,42.56
2023-04-30T15:30:46.195Z,43.04
2023-04-30T15:33:12.764Z,42.53
2023-04-30T15:35:39.817Z,41.33
2023-04-30T15:38:06.686Z,42.68
2023-04-30T15:40:33.218Z,41.90
2023-04-30T15:42:59.743Z,40.84
2023-04-30T15:45:27.824Z,43.05
2023-04-30T15:47:54.388Z,43.62
2023-04-30T15:50:21.323Z,40.60
2023-04-30T15:52:47.857Z,43.64
2023-04-30T15:55:14.468Z,42.92
2023-04-30T15:57:41.028Z,40.97
2023-04-30T16:00:08.771Z,42.35
2023-04-30T16:02:41.300Z,41.80
2023-04-30T16:05:08.298Z,43.21
2023-04-30T16:07:35.261Z,44.31
2023-04-30T16:10:02.950Z,44.86
2023-04-30T16:12:30.014Z,44.75
2023-04-30T16:14:56.659Z,44.86
2023-04-30T16:17:24.274Z,43.46
2023-04-30T16:19:50.920Z,45.27
2023-04-30T16:22:18.397Z,46.18
2023-04-30T16:24:45.106Z,45.92
2023-04-30T16:27:11.708Z,46.11
2023-04-30T16:29:38.359Z,45.73
2023-04-30T16:32:05.111Z,45.74
2023-04-30T16:34:31.662Z,46.09
2023-04-30T16:36:58.186Z,45.29
2023-04-30T16:39:24.830Z,45.30
2023-04-30T16:41:51.439Z,45.90
2023-04-30T16:44:17.918Z,43.60
2023-04-30T16:46:44.563Z,43.14
2023-04-30T16:49:11.041Z,42.81
2023-04-30T16:51:37.739Z,44.47
2023-04-30T16:54:04.216Z,43.11
2023-04-30T16:56:30.925Z,42.10
2023-04-30T16:58:57.434Z,43.79
2023-04-30T17:01:24.172Z,45.77
2023-04-30T17:03:51.472Z,42.28
2023-04-30T17:06:18.282Z,44.57
2023-04-30T17:08:44.924Z,44.12
2023-04-30T17:11:11.628Z,42.57
2023-04-30T17:13:38.265Z,41.70
2023-04-30T17:16:05.197Z,43.16
2023-04-30T17:18:32.282Z,44.20
2023-04-30T17:20:58.935Z,43.14
2023-04-30T17:23:25.581Z,42.49
2023-04-30T17:25:52.262Z,42.80
2023-04-30T17:28:18.745Z,43.81
2023-04-30T17:30:45.520Z,43.94
2023-04-30T17:33:12.220Z,44.20
2023-04-30T17:35:38.855Z,43.63
2023-04-30T17:38:05.380Z,43.77
2023-04-30T17:40:32.524Z,45.16
2023-04-30T17:42:59.014Z,45.08
2023-04-30T17:45:26.673Z,45.41
2023-04-30T17:47:53.328Z,44.57
2023-04-30T17:50:19.945Z,45.47
2023-04-30T17:52:46.635Z,44.91
2023-04-30T17:55:13.625Z,45.05
2023-04-30T17:57:40.136Z,46.10
2023-04-30T18:00:07.384Z,46.07
2023-04-30T18:02:40.019Z,45.56
2023-04-30T18:05:06.882Z,45.62
2023-04-30T18:07:33.446Z,46.91
2023-04-30T18:10:00.294Z,46.33
2023-04-30T18:12:27.128Z,47.05
2023-04-30T18:14:53.832Z,46.36
2023-04-30T18:17:20.353Z,46.47
2023-04-30T18:19:48.589Z,46.56
2023-04-30T18:22:15.270Z,45.20
2023-04-30T18:24:42.352Z,46.02
2023-04-30T18:27:09.965Z,47.23
2023-04-30T18:29:37.008Z,47.56
2023-04-30T18:32:03.658Z,47.31
2023-04-30T18:34:30.279Z,47.20
2023-04-30T18:36:57.010Z,47.71
2023-04-30T18:39:23.521Z,47.60
2023-04-30T18:41:51.369Z,47.26
2023-04-30T18:44:19.096Z,47.21
2023-04-30T18:46:45.682Z,47.60
2023-04-30T18:49:13.582Z,47.80
2023-04-30T18:51:40.219Z,47.70
2023-04-30T18:54:06.676Z,46.62
2023-04-30T18:56:33.241Z,46.45
2023-04-30T18:58:59.728Z,45.77
2023-04-30T19:01:27.189Z,46.79
2023-04-30T19:03:54.249Z,47.75
2023-04-30T19:06:21.059Z,47.56
2023-04-30T19:08:47.908Z,46.55
2023-04-30T19:11:14.903Z,47.24
2023-04-30T19:13:41.455Z,47.80
2023-04-30T19:16:08.223Z,48.15
2023-04-30T19:18:35.098Z,47.80
2023-04-30T19:21:02.194Z,47.41
2023-04-30T19:23:30.168Z,47.44
2023-04-30T19:25:57.844Z,46.95
2023-04-30T19:28:24.553Z,47.57
2023-04-30T19:30:54.065Z,47.95
2023-04-30T19:33:22.069Z,47.73
2023-04-30T19:35:49.722Z,47.80
2023-04-30T19:38:17.010Z,47.75
2023-04-30T19:40:51.951Z,47.84
2023-04-30T19:43:19.870Z,48.18
2023-04-30T19:45:50.243Z,47.99
2023-04-30T19:48:17.483Z,47.40
2023-04-30T19:50:47.528Z,47.31
2023-04-30T19:53:16.214Z,47.99
2023-04-30T19:55:43.759Z,48.35
2023-04-30T19:58:10.370Z,49.63
2023-04-30T20:00:38.385Z,48.98
2023-04-30T20:03:05.416Z,48.82
2023-04-30T20:05:33.395Z,49.09
2023-04-30T20:08:00.005Z,48.97
2023-04-30T20:10:27.084Z,49.12
2023-04-30T20:12:54.376Z,49.76
2023-04-30T20:15:22.493Z,48.55
2023-04-30T20:17:50.293Z,49.37
2023-04-30T20:20:17.998Z,49.78
2023-04-30T20:22:44.602Z,49.03
2023-04-30T20:25:11.080Z,48.53
2023-04-30T20:27:37.693Z,48.26
2023-04-30T20:30:05.269Z,49.80
2023-04-30T20:32:31.926Z,50.09
2023-04-30T20:34:58.861Z,49.42
2023-04-30T20:37:25.568Z,48.84
2023-04-30T20:39:52.226Z,49.07
2023-04-30T20:42:19.720Z,48.20
2023-04-30T20:44:47.327Z,49.50
2023-04-30T20:47:16.900Z,49.18
2023-04-30T20:49:43.826Z,48.86
2023-04-30T20:52:12.097Z,49.04
2023-04-30T20:54:39.035Z,49.14
2023-04-30T20:57:05.982Z,49.16
2023-04-30T20:59:32.682Z,50.47
2023-04-30T21:01:59.251Z,51.03
2023-04-30T21:04:25.893Z,50.97
2023-04-30T21:06:52.726Z,51.62
2023-04-30T21:09:19.372Z,49.78
2023-04-30T21:11:46.043Z,48.45
2023-04-30T21:14:12.713Z,50.70
2023-04-30T21:16:40.708Z,50.98
2023-04-30T21:19:07.506Z,49.95
2023-04-30T21:21:34.561Z,49.98
2023-04-30T21:24:01.132Z,48.87
2023-04-30T21:26:28.144Z,48.78
2023-04-30T21:28:54.777Z,48.78
2023-04-30T21:31:21.491Z,48.85
2023-04-30T21:33:48.080Z,48.72
2023-04-30T21:36:16.401Z,48.27
2023-04-30T21:38:43.067Z,48.28
2023-04-30T21:41:16.862Z,47.73
2023-04-30T21:43:44.065Z,47.97
2023-04-30T21:46:10.933Z,47.64
2023-04-30T21:48:38.345Z,47.94
2023-04-30T21:51:16.708Z,49.10
2023-04-30T21:53:44.417Z,48.20
2023-04-30T21:56:11.656Z,48.30
2023-04-30T21:58:39.140Z,47.51
2023-04-30T22:01:06.174Z,47.83
2023-04-30T22:03:33.624Z,47.87
2023-04-30T22:06:00.617Z,47.76
2023-04-30T22:08:27.917Z,48.21
2023-04-30T22:11:00.783Z,48.33
2023-04-30T22:13:28.217Z,48.21
2023-04-30T22:15:55.259Z,47.89
2023-04-30T22:18:22.808Z,48.55
2023-04-30T22:20:50.016Z,48.34
2023-04-30T22:23:17.259Z,48.51
2023-04-30T22:25:43.904Z,48.72
2023-04-30T22:28:10.539Z,47.99
2023-04-30T22:30:37.711Z,48.44
2023-04-30T22:33:04.364Z,48.26
2023-04-30T22:35:32.625Z,48.60
2023-04-30T22:38:00.412Z,48.63
2023-04-30T22:40:27.197Z,48.37
2023-04-30T22:42:54.092Z,48.48
2023-04-30T22:45:20.796Z,48.67
2023-04-30T22:47:47.647Z,48.30
2023-04-30T22:50:14.253Z,48.14
2023-04-30T22:52:41.097Z,47.83
2023-04-30T22:55:08.190Z,48.41
2023-04-30T22:57:34.816Z,47.83
2023-04-30T23:00:01.667Z,47.50
2023-04-30T23:02:28.678Z,47.65
2023-04-30T23:04:55.353Z,47.50
2023-04-30T23:07:21.926Z,47.29
2023-04-30T23:09:48.664Z,46.65
2023-04-30T23:12:15.877Z,46.37
2023-04-30T23:14:42.447Z,46.95
2023-04-30T23:17:09.281Z,46.72
2023-04-30T23:19:36.024Z,46.03
2023-04-30T23:22:02.594Z,46.26
2023-04-30T23:24:34.918Z,45.60
2023-04-30T23:27:03.108Z,45.27
2023-04-30T23:29:29.712Z,45.91
2023-04-30T23:31:56.695Z,45.26
2023-04-30T23:34:23.416Z,45.56
2023-04-30T23:36:50.022Z,45.24
2023-04-30T23:39:16.753Z,45.70
2023-04-30T23:41:43.404Z,45.06
2023-04-30T23:44:10.226Z,45.31
2023-04-30T23:46:36.813Z,45.09
2023-04-30T23:49:03.660Z,45.51
2023-04-30T23:51:32.467Z,46.49
2023-04-30T23:53:59.104Z,46.86
2023-04-30T23:56:25.683Z,45.69
2023-04-30T23:58:52.195Z,44.90
